Time;durP1;ratioP1;P1;durP2;ratioP2;P2;SDS_P1;SDS_P2;PMS_P1;PMS_P2;Temp;Humidity;BMP_temperature;BMP_pressure;BME280_temperature;BME280_humidity;BME280_pressure;Samples;Min_cycle;Max_cycle;Signal;HPM_P1;HPM_P2
2023/04/15 00:00:52;;;;;;;19.20;12.02;;;;;;;;;;5012825;28;20024;-64
2023/04/15 00:03:18;;;;;;;20.08;13.15;;;;;;;;;;5050441;22;20052;-61
2023/04/15 00:05:44;;;;;;;22.88;13.43;;;;;;;;;;5034141;28;20037;-60
2023/04/15 00:08:11;;;;;;;21.60;13.75;;;;;;;;;;5031859;28;20087;-58
2023/04/15 00:10:37;;;;;;;25.70;13.32;;;;;;;;;;5034078;28;20079;-61
2023/04/15 00:13:03;;;;;;;22.50;14.07;;;;;;;;;;5033268;28;20503;-62
2023/04/15 00:15:29;;;;;;;23.55;13.35;;;;;;;;;;5033939;28;20481;-63
2023/04/15 00:17:55;;;;;;;20.83;13.45;;;;;;;;;;5034049;28;20037;-58
2023/04/15 00:20:21;;;;;;;22.63;14.35;;;;;;;;;;5033980;28;20505;-61
2023/04/15 00:22:47;;;;;;;21.23;13.63;;;;;;;;;;5033794;28;20029;-64
2023/04/15 00:25:14;;;;;;;20.65;13.05;;;;;;;;;;5015415;28;20025;-61
2023/04/15 00:27:40;;;;;;;19.95;12.88;;;;;;;;;;5033767;28;20500;-57
2023/04/15 00:30:06;;;;;;;21.45;12.57;;;;;;;;;;5033619;28;20053;-62
2023/04/15 00:32:33;;;;;;;20.75;12.85;;;;;;;;;;5015788;28;20026;-60
2023/04/15 00:34:58;;;;;;;20.38;13.23;;;;;;;;;;5032856;28;20036;-62
2023/04/15 00:37:24;;;;;;;20.27;13.25;;;;;;;;;;5015853;28;20108;-62
2023/04/15 00:39:50;;;;;;;19.30;12.73;;;;;;;;;;5033569;28;20478;-59
2023/04/15 00:42:17;;;;;;;21.30;12.63;;;;;;;;;;5033052;28;20025;-57
2023/04/15 00:44:43;;;;;;;20.48;12.38;;;;;;;;;;5014934;28;20390;-60
2023/04/15 00:47:10;;;;;;;19.73;12.52;;;;;;;;;;5033618;28;20079;-61
2023/04/15 00:49:36;;;;;;;25.23;13.98;;;;;;;;;;5033560;28;20486;-60
2023/04/15 00:52:03;;;;;;;24.50;13.15;;;;;;;;;;5033481;28;20032;-61
2023/04/15 00:54:29;;;;;;;23.90;13.35;;;;;;;;;;5032630;28;20047;-62
2023/04/15 00:56:55;;;;;;;22.45;14.20;;;;;;;;;;5033435;28;20482;-63
2023/04/15 00:59:21;;;;;;;21.70;13.70;;;;;;;;;;5033276;28;20394;-62
2023/04/15 01:01:47;;;;;;;20.95;13.50;;;;;;;;;;5032476;28;20025;-59
2023/04/15 01:04:13;;;;;;;21.60;13.80;;;;;;;;;;5024576;28;20100;-58
2023/04/15 01:06:39;;;;;;;21.48;13.73;;;;;;;;;;5033467;28;20021;-59
2023/04/15 01:09:05;;;;;;;21.10;13.43;;;;;;;;;;5026208;28;20021;-59
2023/04/15 01:11:33;;;;;;;22.55;13.27;;;;;;;;;;5032987;28;20053;-63
2023/04/15 01:13:59;;;;;;;21.45;13.13;;;;;;;;;;5031317;28;20036;-61
2023/04/15 01:16:27;;;;;;;22.08;13.52;;;;;;;;;;5034443;28;20029;-58
2023/04/15 01:18:53;;;;;;;22.42;14.25;;;;;;;;;;5034064;28;20025;-60
2023/04/15 01:21:20;;;;;;;20.67;13.88;;;;;;;;;;5032508;28;20052;-56
2023/04/15 01:23:47;;;;;;;22.65;13.38;;;;;;;;;;5031741;28;20414;-60
2023/04/15 01:26:13;;;;;;;22.80;14.23;;;;;;;;;;5033093;28;20049;-59
2023/04/15 01:28:39;;;;;;;21.35;13.77;;;;;;;;;;5032749;28;20037;-60
2023/04/15 01:31:06;;;;;;;20.33;13.65;;;;;;;;;;5032769;28;20082;-61
2023/04/15 01:33:32;;;;;;;21.75;13.88;;;;;;;;;;5031749;28;20040;-61
2023/04/15 01:35:58;;;;;;;21.83;14.25;;;;;;;;;;5032347;28;20026;-61
2023/04/15 01:38:26;;;;;;;22.95;14.30;;;;;;;;;;5032565;28;20040;-59
2023/04/15 01:40:52;;;;;;;20.77;13.93;;;;;;;;;;5032585;28;20025;-59
2023/04/15 01:43:19;;;;;;;22.20;14.30;;;;;;;;;;5031658;28;20045;-63
2023/04/15 01:45:45;;;;;;;20.55;13.57;;;;;;;;;;5032013;28;20029;-62
2023/04/15 01:48:12;;;;;;;21.20;13.50;;;;;;;;;;5014686;28;20433;-61
2023/04/15 01:50:38;;;;;;;21.75;14.55;;;;;;;;;;5032576;28;20025;-59
2023/04/15 01:53:04;;;;;;;21.35;13.30;;;;;;;;;;5031502;28;20045;-60
2023/04/15 01:55:30;;;;;;;21.08;13.95;;;;;;;;;;5032141;28;20063;-59
2023/04/15 01:57:56;;;;;;;22.73;14.00;;;;;;;;;;5014748;28;20112;-62
2023/04/15 02:00:22;;;;;;;22.75;13.20;;;;;;;;;;5032166;28;20025;-61
2023/04/15 02:02:48;;;;;;;23.77;15.40;;;;;;;;;;5031613;28;20033;-56
2023/04/15 02:05:15;;;;;;;22.50;14.60;;;;;;;;;;5030943;28;20030;-61
2023/04/15 02:07:42;;;;;;;21.83;14.02;;;;;;;;;;5031826;28;20402;-61
2023/04/15 02:10:09;;;;;;;24.35;14.77;;;;;;;;;;5031980;28;20029;-61
2023/04/15 02:12:35;;;;;;;23.95;15.10;;;;;;;;;;5014139;28;20022;-61
2023/04/15 02:15:01;;;;;;;21.50;14.35;;;;;;;;;;5013407;28;20026;-58
2023/04/15 02:17:27;;;;;;;23.95;14.52;;;;;;;;;;5031889;28;20022;-59
2023/04/15 02:19:55;;;;;;;21.55;14.65;;;;;;;;;;5014148;28;20052;-61
2023/04/15 02:22:21;;;;;;;21.88;14.50;;;;;;;;;;5031916;28;20018;-62
2023/04/15 02:24:47;;;;;;;23.02;14.55;;;;;;;;;;5031053;28;20075;-62
2023/04/15 02:27:17;;;;;;;22.67;14.68;;;;;;;;;;5031697;28;20398;-62
2023/04/15 02:29:44;;;;;;;24.88;14.90;;;;;;;;;;5014193;28;20045;-61
2023/04/15 02:32:11;;;;;;;22.50;15.50;;;;;;;;;;5013235;28;20025;-64
2023/04/15 02:34:40;;;;;;;22.73;15.30;;;;;;;;;;5031056;28;20054;-62
2023/04/15 02:37:06;;;;;;;21.70;14.48;;;;;;;;;;5031551;28;20030;-56
2023/04/15 02:39:32;;;;;;;25.15;15.90;;;;;;;;;;5031741;28;20056;-61
2023/04/15 02:41:59;;;;;;;23.42;14.90;;;;;;;;;;5013855;28;20076;-60
2023/04/15 02:44:26;;;;;;;23.27;15.27;;;;;;;;;;5030965;28;20022;-60
2023/04/15 02:46:53;;;;;;;22.42;14.85;;;;;;;;;;5028990;28;20022;-59
2023/04/15 02:49:19;;;;;;;22.88;15.40;;;;;;;;;;5031397;28;20013;-61
2023/04/15 02:51:49;;;;;;;22.75;15.27;;;;;;;;;;5031188;28;20016;-60
2023/04/15 02:54:16;;;;;;;26.45;16.05;;;;;;;;;;5030661;28;20028;-55
2023/04/15 02:56:42;;;;;;;23.85;15.48;;;;;;;;;;5021759;28;20037;-61
2023/04/15 02:59:08;;;;;;;21.50;15.88;;;;;;;;;;5031688;28;20546;-59
2023/04/15 03:01:34;;;;;;;22.52;15.40;;;;;;;;;;5031118;28;20026;-58
2023/04/15 03:04:00;;;;;;;23.27;15.30;;;;;;;;;;5030700;28;20025;-62
2023/04/15 03:06:26;;;;;;;23.77;15.48;;;;;;;;;;5030026;28;20374;-60
2023/04/15 03:08:52;;;;;;;24.33;15.93;;;;;;;;;;5030191;28;20026;-64
2023/04/15 03:11:18;;;;;;;26.65;17.42;;;;;;;;;;5030188;28;20041;-62
2023/04/15 03:13:45;;;;;;;26.65;16.80;;;;;;;;;;5030602;28;20406;-60
2023/04/15 03:16:11;;;;;;;25.13;15.77;;;;;;;;;;5031261;28;20037;-58
2023/04/15 03:18:37;;;;;;;27.75;17.20;;;;;;;;;;5031163;28;20531;-62
2023/04/15 03:21:03;;;;;;;26.73;17.23;;;;;;;;;;5030096;28;20462;-61
2023/04/15 03:23:30;;;;;;;24.20;16.98;;;;;;;;;;5030318;28;20029;-60
2023/04/15 03:25:57;;;;;;;24.70;16.52;;;;;;;;;;5031246;28;20021;-64
2023/04/15 03:28:23;;;;;;;25.05;16.75;;;;;;;;;;5030123;28;20394;-61
2023/04/15 03:30:49;;;;;;;24.55;17.13;;;;;;;;;;5031310;28;20026;-60
2023/04/15 03:33:15;;;;;;;26.23;16.75;;;;;;;;;;5030375;28;20359;-62
2023/04/15 03:35:41;;;;;;;25.48;17.13;;;;;;;;;;5030932;28;20083;-58
2023/04/15 03:38:07;;;;;;;30.33;17.40;;;;;;;;;;5030960;28;20033;-60
2023/04/15 03:40:33;;;;;;;24.15;16.38;;;;;;;;;;5030978;28;20084;-62
2023/04/15 03:42:59;;;;;;;25.67;17.50;;;;;;;;;;5031359;28;20021;-61
2023/04/15 03:45:25;;;;;;;26.27;17.83;;;;;;;;;;5033836;28;20400;-63
2023/04/15 03:47:51;;;;;;;25.08;17.10;;;;;;;;;;5033173;28;20124;-62
2023/04/15 03:50:17;;;;;;;29.10;17.90;;;;;;;;;;5033223;28;20070;-62
2023/04/15 03:52:44;;;;;;;25.95;18.10;;;;;;;;;;5034364;28;20420;-62
2023/04/15 03:55:10;;;;;;;26.33;18.08;;;;;;;;;;5033738;28;20040;-62
2023/04/15 03:57:37;;;;;;;24.58;17.00;;;;;;;;;;5034360;28;20096;-58
2023/04/15 04:00:08;;;;;;;25.65;17.05;;;;;;;;;;5034413;28;20028;-60
2023/04/15 04:02:34;;;;;;;25.25;18.05;;;;;;;;;;5032712;28;20029;-61
2023/04/15 04:05:00;;;;;;;24.23;17.50;;;;;;;;;;5033438;28;20037;-63
2023/04/15 04:07:26;;;;;;;28.02;17.98;;;;;;;;;;5033047;28;20393;-63
2023/04/15 04:09:52;;;;;;;24.63;17.45;;;;;;;;;;5032938;28;20025;-62
2023/04/15 04:12:18;;;;;;;26.13;18.50;;;;;;;;;;5034252;28;20029;-58
2023/04/15 04:14:44;;;;;;;29.02;18.60;;;;;;;;;;5032400;28;20549;-58
2023/04/15 04:17:10;;;;;;;25.83;18.15;;;;;;;;;;5032845;28;20094;-61
2023/04/15 04:19:36;;;;;;;27.27;18.55;;;;;;;;;;5033898;28;20025;-61
2023/04/15 04:22:02;;;;;;;25.67;18.02;;;;;;;;;;5032485;28;20517;-60
2023/04/15 04:24:28;;;;;;;26.05;18.45;;;;;;;;;;5033006;28;20405;-61
2023/04/15 04:26:56;;;;;;;26.95;17.95;;;;;;;;;;5033802;28;20420;-57
2023/04/15 04:29:22;;;;;;;24.48;18.17;;;;;;;;;;5033737;28;20567;-59
2023/04/15 04:31:48;;;;;;;25.85;17.45;;;;;;;;;;5033719;28;20025;-60
2023/04/15 04:34:14;;;;;;;26.67;18.48;;;;;;;;;;5032654;28;20032;-57
2023/04/15 04:36:40;;;;;;;24.55;16.88;;;;;;;;;;5033604;28;20044;-61
2023/04/15 04:39:07;;;;;;;25.15;17.70;;;;;;;;;;5033609;28;20029;-58
2023/04/15 04:41:33;;;;;;;25.83;17.88;;;;;;;;;;5033565;28;20393;-61
2023/04/15 04:43:59;;;;;;;32.60;20.35;;;;;;;;;;5032756;28;20028;-61
2023/04/15 04:46:25;;;;;;;25.05;18.55;;;;;;;;;;5032284;28;20487;-55
2023/04/15 04:48:51;;;;;;;24.70;17.05;;;;;;;;;;5032013;28;20133;-58
2023/04/15 04:51:17;;;;;;;26.45;18.60;;;;;;;;;;5033476;28;20083;-62
2023/04/15 04:53:43;;;;;;;25.65;17.73;;;;;;;;;;5032070;28;20060;-58
2023/04/15 04:56:09;;;;;;;27.98;18.45;;;;;;;;;;5033298;28;20045;-59
2023/04/15 04:58:35;;;;;;;24.98;16.67;;;;;;;;;;5033193;28;20513;-58
2023/04/15 05:01:01;;;;;;;27.35;17.08;;;;;;;;;;5031872;28;20497;-59
2023/04/15 05:03:27;;;;;;;25.10;17.55;;;;;;;;;;5031874;28;20037;-61
2023/04/15 05:05:53;;;;;;;28.30;17.45;;;;;;;;;;5033112;28;20116;-60
2023/04/15 05:08:20;;;;;;;26.20;17.80;;;;;;;;;;5033282;28;20034;-60
2023/04/15 05:10:46;;;;;;;28.73;16.85;;;;;;;;;;5031941;28;20041;-59
2023/04/15 05:13:12;;;;;;;23.15;16.23;;;;;;;;;;5032039;28;20068;-62
2023/04/15 05:15:40;;;;;;;25.52;16.42;;;;;;;;;;5032830;28;20053;-61
2023/04/15 05:18:06;;;;;;;30.13;17.58;;;;;;;;;;5031628;28;20018;-60
2023/04/15 05:20:32;;;;;;;25.88;17.30;;;;;;;;;;5032734;28;20036;-60
2023/04/15 05:22:58;;;;;;;26.67;17.63;;;;;;;;;;5031097;28;20021;-59
2023/04/15 05:25:24;;;;;;;25.58;17.88;;;;;;;;;;5032323;28;20406;-61
2023/04/15 05:27:50;;;;;;;25.27;17.60;;;;;;;;;;5031267;28;20029;-59
2023/04/15 05:30:16;;;;;;;26.35;18.00;;;;;;;;;;5031361;28;20025;-57
2023/04/15 05:32:42;;;;;;;24.48;16.58;;;;;;;;;;5031195;28;20136;-56
2023/04/15 05:35:08;;;;;;;25.73;17.73;;;;;;;;;;5031634;28;20429;-59
2023/04/15 05:37:35;;;;;;;25.33;16.98;;;;;;;;;;5031148;28;20498;-61
2023/04/15 05:40:01;;;;;;;26.52;16.88;;;;;;;;;;5032502;28;20087;-60
2023/04/15 05:42:27;;;;;;;28.08;16.10;;;;;;;;;;5032420;28;20028;-60
2023/04/15 05:44:53;;;;;;;25.83;16.95;;;;;;;;;;5030317;28;20018;-58
2023/04/15 05:47:19;;;;;;;26.73;15.65;;;;;;;;;;5032258;28;20033;-58
2023/04/15 05:49:45;;;;;;;26.73;16.67;;;;;;;;;;5032412;28;20025;-62
2023/04/15 05:52:11;;;;;;;25.45;15.50;;;;;;;;;;5029756;28;20028;-57
2023/04/15 05:54:37;;;;;;;26.00;15.82;;;;;;;;;;5031132;28;20022;-59
2023/04/15 05:57:03;;;;;;;24.83;15.80;;;;;;;;;;5018679;28;20074;-62
2023/04/15 05:59:29;;;;;;;28.65;16.25;;;;;;;;;;5031889;28;20571;-59
2023/04/15 06:04:23;;;;;;;23.52;15.50;;;;;;;;;;5028408;22;20096;-64
2023/04/15 06:06:49;;;;;;;24.33;15.23;;;;;;;;;;5013241;28;20025;-63
2023/04/15 06:09:15;;;;;;;26.23;15.52;;;;;;;;;;5006519;28;20053;-64
2023/04/15 06:11:41;;;;;;;26.40;15.65;;;;;;;;;;5032155;28;20079;-64
2023/04/15 06:14:07;;;;;;;25.50;15.25;;;;;;;;;;5030944;28;20029;-64
2023/04/15 06:16:35;;;;;;;25.02;15.38;;;;;;;;;;5031989;28;20036;-63
2023/04/15 06:19:01;;;;;;;25.38;17.02;;;;;;;;;;5031689;28;20389;-64
2023/04/15 06:21:27;;;;;;;28.00;15.50;;;;;;;;;;5014420;28;20022;-64
2023/04/15 06:23:53;;;;;;;26.20;16.90;;;;;;;;;;5013375;28;20021;-64
2023/04/15 06:26:19;;;;;;;25.70;15.90;;;;;;;;;;5021451;28;20034;-63
2023/04/15 06:28:45;;;;;;;25.02;15.20;;;;;;;;;;5012052;28;20026;-64
2023/04/15 06:31:11;;;;;;;28.23;15.35;;;;;;;;;;4994264;28;20030;-64
2023/04/15 06:33:38;;;;;;;23.08;15.27;;;;;;;;;;5011027;28;20478;-64
2023/04/15 06:36:04;;;;;;;23.80;15.13;;;;;;;;;;5012067;28;20030;-65
2023/04/15 06:38:30;;;;;;;26.13;15.38;;;;;;;;;;5012600;28;20052;-65
2023/04/15 06:40:56;;;;;;;25.35;15.70;;;;;;;;;;5012074;28;20112;-64
2023/04/15 06:43:23;;;;;;;24.48;15.50;;;;;;;;;;4993558;28;20474;-65
2023/04/15 06:45:49;;;;;;;26.17;15.48;;;;;;;;;;5011723;28;20506;-65
2023/04/15 06:48:16;;;;;;;24.88;15.93;;;;;;;;;;5001049;28;20033;-64
2023/04/15 06:50:42;;;;;;;23.90;14.82;;;;;;;;;;5000295;28;20451;-65
2023/04/15 06:53:08;;;;;;;24.92;15.10;;;;;;;;;;5011255;28;20048;-64
2023/04/15 06:55:34;;;;;;;25.27;14.65;;;;;;;;;;5013055;28;20053;-63
2023/04/15 06:58:00;;;;;;;29.52;17.02;;;;;;;;;;4993139;28;20045;-61
2023/04/15 07:00:27;;;;;;;24.10;14.95;;;;;;;;;;4992650;28;20030;-58
2023/04/15 07:02:54;;;;;;;23.92;15.00;;;;;;;;;;4996215;28;20034;-62
2023/04/15 07:05:20;;;;;;;24.05;15.02;;;;;;;;;;5002738;28;20026;-59
2023/04/15 07:07:46;;;;;;;27.60;15.73;;;;;;;;;;5011435;28;20419;-58
2023/04/15 07:10:13;;;;;;;24.88;16.17;;;;;;;;;;5010305;28;20133;-60
2023/04/15 07:12:40;;;;;;;25.08;14.93;;;;;;;;;;5010410;28;20120;-60
2023/04/15 07:15:06;;;;;;;24.73;15.27;;;;;;;;;;5009615;28;20057;-57
2023/04/15 07:17:33;;;;;;;24.98;15.68;;;;;;;;;;5009511;28;20096;-60
2023/04/15 07:19:59;;;;;;;25.95;16.33;;;;;;;;;;5014990;28;20018;-58
2023/04/15 07:22:25;;;;;;;25.02;15.75;;;;;;;;;;5007437;28;20014;-60
2023/04/15 07:24:51;;;;;;;24.65;15.02;;;;;;;;;;5012059;28;20041;-57
2023/04/15 07:27:17;;;;;;;24.63;16.55;;;;;;;;;;5016911;28;20053;-61
2023/04/15 07:29:43;;;;;;;25.67;14.45;;;;;;;;;;5016917;28;20032;-59
2023/04/15 07:32:09;;;;;;;23.30;14.85;;;;;;;;;;5006612;28;20018;-59
2023/04/15 07:34:36;;;;;;;24.35;15.75;;;;;;;;;;5013129;28;20018;-57
2023/04/15 07:37:02;;;;;;;26.52;16.23;;;;;;;;;;5013666;28;20038;-56
2023/04/15 07:39:28;;;;;;;25.70;15.40;;;;;;;;;;5014905;28;20054;-57
2023/04/15 07:41:55;;;;;;;24.65;15.13;;;;;;;;;;5014868;28;20530;-59
2023/04/15 07:44:21;;;;;;;21.02;13.60;;;;;;;;;;5014052;28;20049;-60
2023/04/15 07:46:47;;;;;;;23.60;15.45;;;;;;;;;;5014454;28;20018;-60
2023/04/15 07:49:13;;;;;;;22.85;14.60;;;;;;;;;;5014539;28;20502;-58
2023/04/15 07:51:39;;;;;;;23.75;15.60;;;;;;;;;;5014871;28;20141;-59
2023/04/15 07:54:05;;;;;;;22.23;14.85;;;;;;;;;;5014228;28;20105;-58
2023/04/15 07:56:31;;;;;;;25.38;15.43;;;;;;;;;;5015265;28;20815;-59
2023/04/15 07:58:57;;;;;;;24.52;14.35;;;;;;;;;;5015428;28;20565;-55
2023/04/15 08:01:23;;;;;;;23.08;14.88;;;;;;;;;;4996437;28;20019;-65
2023/04/15 08:03:49;;;;;;;21.10;13.20;;;;;;;;;;4996528;28;20056;-64
2023/04/15 08:06:15;;;;;;;22.42;14.32;;;;;;;;;;4997255;28;20478;-65
2023/04/15 08:08:41;;;;;;;22.77;14.15;;;;;;;;;;5014655;28;20053;-63
2023/04/15 08:11:08;;;;;;;23.63;15.10;;;;;;;;;;4997246;28;20049;-62
2023/04/15 08:13:34;;;;;;;23.23;14.68;;;;;;;;;;5014075;28;20121;-65
2023/04/15 08:16:33;;;;;;;22.50;14.13;;;;;;;;;;4996893;28;20033;-65
2023/04/15 08:18:59;;;;;;;21.40;13.32;;;;;;;;;;4965025;28;20108;-63
2023/04/15 08:21:26;;;;;;;21.63;13.65;;;;;;;;;;5014404;28;20032;-64
2023/04/15 08:23:53;;;;;;;24.95;14.88;;;;;;;;;;5013876;28;20107;-64
2023/04/15 08:26:20;;;;;;;24.90;14.02;;;;;;;;;;4996951;28;20042;-57
2023/04/15 08:28:46;;;;;;;23.95;15.13;;;;;;;;;;5013488;28;20041;-65
2023/04/15 08:31:12;;;;;;;24.10;14.63;;;;;;;;;;5014640;28;20029;-65
2023/04/15 08:33:38;;;;;;;24.33;13.75;;;;;;;;;;5013667;28;20032;-65
2023/04/15 08:36:05;;;;;;;23.08;13.98;;;;;;;;;;5014219;28;20029;-65
2023/04/15 08:38:31;;;;;;;23.88;14.60;;;;;;;;;;5014021;28;20490;-65
2023/04/15 08:40:58;;;;;;;23.90;14.60;;;;;;;;;;5014191;28;20041;-65
2023/04/15 08:43:27;;;;;;;22.42;14.50;;;;;;;;;;4995361;28;20068;-63
2023/04/15 08:45:54;;;;;;;23.10;14.00;;;;;;;;;;5013718;28;20109;-64
2023/04/15 08:48:20;;;;;;;24.30;13.90;;;;;;;;;;4995835;28;20034;-65
2023/04/15 08:50:47;;;;;;;23.77;14.75;;;;;;;;;;5014140;28;20041;-64
2023/04/15 08:53:14;;;;;;;21.58;14.23;;;;;;;;;;5012951;28;20045;-64
2023/04/15 08:55:44;;;;;;;22.48;13.38;;;;;;;;;;5014390;28;20029;-64
2023/04/15 08:58:11;;;;;;;25.70;14.88;;;;;;;;;;4996685;28;20434;-64
2023/04/15 09:00:37;;;;;;;21.80;13.02;;;;;;;;;;4996431;28;20029;-64
2023/04/15 09:03:08;;;;;;;21.35;13.60;;;;;;;;;;4995893;28;20037;-63
2023/04/15 09:05:34;;;;;;;22.55;14.35;;;;;;;;;;5014036;28;20049;-65
2023/04/15 09:08:01;;;;;;;23.05;13.75;;;;;;;;;;4996379;28;20041;-65
2023/04/15 09:10:27;;;;;;;20.73;13.25;;;;;;;;;;5013993;28;20030;-65
2023/04/15 09:12:53;;;;;;;22.40;13.25;;;;;;;;;;4996383;28;20397;-64
2023/04/15 09:15:20;;;;;;;21.05;13.18;;;;;;;;;;5013128;28;20042;-64
2023/04/15 09:17:47;;;;;;;22.33;12.85;;;;;;;;;;5013978;28;20029;-63
2023/04/15 09:20:14;;;;;;;22.42;13.63;;;;;;;;;;5013784;28;20121;-63
2023/04/15 09:22:41;;;;;;;21.80;13.20;;;;;;;;;;5013593;28;20022;-64
2023/04/15 09:25:27;;;;;;;21.52;13.35;;;;;;;;;;5013350;28;20040;-64
2023/04/15 09:27:55;;;;;;;21.25;13.20;;;;;;;;;;4996118;28;20022;-66
2023/04/15 09:30:21;;;;;;;21.83;12.77;;;;;;;;;;5014004;28;20022;-64
2023/04/15 09:32:56;;;;;;;20.30;13.13;;;;;;;;;;5013990;28;20766;-63
2023/04/15 09:35:22;;;;;;;20.70;13.13;;;;;;;;;;5013211;28;20064;-65
2023/04/15 09:37:49;;;;;;;21.95;13.20;;;;;;;;;;4995822;28;20071;-64
2023/04/15 09:40:30;;;;;;;20.77;12.88;;;;;;;;;;5012977;28;20029;-65
2023/04/15 09:42:56;;;;;;;19.67;12.57;;;;;;;;;;5012757;28;20018;-63
2023/04/15 09:45:22;;;;;;;21.40;13.32;;;;;;;;;;5012950;28;20030;-66
2023/04/15 09:47:52;;;;;;;21.10;12.63;;;;;;;;;;5013602;28;20022;-65
2023/04/15 09:50:19;;;;;;;21.83;13.35;;;;;;;;;;4995793;28;20487;-65
2023/04/15 09:52:45;;;;;;;20.55;13.18;;;;;;;;;;5013079;28;20112;-64
2023/04/15 09:55:11;;;;;;;21.52;13.23;;;;;;;;;;5012437;28;20037;-64
2023/04/15 09:57:40;;;;;;;22.58;13.52;;;;;;;;;;5013051;28;20030;-63
2023/04/15 10:00:07;;;;;;;21.42;13.60;;;;;;;;;;5013208;28;20102;-62
2023/04/15 10:02:33;;;;;;;22.23;14.15;;;;;;;;;;5007123;28;20430;-65
2023/04/15 10:04:59;;;;;;;22.95;13.93;;;;;;;;;;5013464;28;20010;-62
2023/04/15 10:07:25;;;;;;;22.45;14.07;;;;;;;;;;4997893;28;20447;-65
2023/04/15 10:09:51;;;;;;;21.40;14.07;;;;;;;;;;5012924;28;20092;-64
2023/04/15 10:12:18;;;;;;;21.27;13.10;;;;;;;;;;4995277;28;20465;-63
2023/04/15 10:14:44;;;;;;;21.88;12.52;;;;;;;;;;4994941;28;20029;-65
2023/04/15 10:17:11;;;;;;;18.92;11.93;;;;;;;;;;5012850;28;20026;-65
2023/04/15 10:19:38;;;;;;;21.23;13.27;;;;;;;;;;5012843;28;20009;-64
2023/04/15 10:22:04;;;;;;;22.20;12.30;;;;;;;;;;5012965;28;20409;-65
2023/04/15 10:24:31;;;;;;;22.65;13.55;;;;;;;;;;5012274;28;20385;-65
2023/04/15 10:26:57;;;;;;;22.27;12.68;;;;;;;;;;4995268;28;20025;-65
2023/04/15 10:29:26;;;;;;;21.30;11.93;;;;;;;;;;5012454;28;20038;-64
2023/04/15 10:31:53;;;;;;;23.90;11.68;;;;;;;;;;5012843;28;20106;-63
2023/04/15 10:34:19;;;;;;;20.10;12.85;;;;;;;;;;4995001;28;20086;-63
2023/04/15 10:36:46;;;;;;;20.17;12.50;;;;;;;;;;4995783;28;20030;-66
2023/04/15 10:39:32;;;;;;;20.60;11.85;;;;;;;;;;4995711;28;20081;-65
2023/04/15 10:42:07;;;;;;;18.38;11.30;;;;;;;;;;5013435;28;20512;-65
2023/04/15 10:44:33;;;;;;;19.35;11.77;;;;;;;;;;5012684;28;20026;-63
2023/04/15 10:46:59;;;;;;;20.38;12.02;;;;;;;;;;4995628;28;20030;-66
2023/04/15 10:49:25;;;;;;;19.30;12.85;;;;;;;;;;5012874;28;20344;-66
2023/04/15 10:51:52;;;;;;;21.08;12.40;;;;;;;;;;4999946;28;20034;-66
2023/04/15 10:54:24;;;;;;;18.88;11.95;;;;;;;;;;4996148;28;20862;-66
2023/04/15 10:56:51;;;;;;;18.52;11.52;;;;;;;;;;5034223;28;20029;-65
2023/04/15 10:59:17;;;;;;;18.92;11.10;;;;;;;;;;5022863;28;20029;-66
2023/04/15 11:01:52;;;;;;;18.65;11.02;;;;;;;;;;5015486;28;20022;-65
2023/04/15 11:04:37;;;;;;;18.90;11.50;;;;;;;;;;5014713;28;20564;-66
2023/04/15 11:07:06;;;;;;;19.27;11.50;;;;;;;;;;5016674;28;20390;-66
2023/04/15 11:09:32;;;;;;;19.45;11.65;;;;;;;;;;5016378;28;20022;-65
2023/04/15 11:12:08;;;;;;;18.65;10.10;;;;;;;;;;5015597;28;20034;-65
2023/04/15 11:14:34;;;;;;;19.77;10.73;;;;;;;;;;4978827;28;20030;-65
2023/04/15 11:17:01;;;;;;;17.73;10.77;;;;;;;;;;4996310;28;20027;-64
2023/04/15 11:19:27;;;;;;;18.88;10.65;;;;;;;;;;4996923;28;20479;-63
2023/04/15 11:21:52;;;;;;;20.38;10.65;;;;;;;;;;4996995;28;20073;-64
2023/04/15 11:24:28;;;;;;;18.02;10.68;;;;;;;;;;4978561;28;20031;-65
2023/04/15 11:26:58;;;;;;;18.02;10.82;;;;;;;;;;4996978;28;20026;-65
2023/04/15 11:29:29;;;;;;;17.73;10.82;;;;;;;;;;4997161;28;20050;-64
2023/04/15 11:32:02;;;;;;;20.02;11.70;;;;;;;;;;4979537;28;20042;-64
2023/04/15 11:34:28;;;;;;;16.90;10.25;;;;;;;;;;4996217;28;20038;-65
2023/04/15 11:36:56;;;;;;;16.80;10.07;;;;;;;;;;4996782;28;20023;-64
2023/04/15 11:39:22;;;;;;;17.80;10.60;;;;;;;;;;4996421;28;20386;-65
2023/04/15 11:41:48;;;;;;;17.15;9.93;;;;;;;;;;4978837;28;20122;-66
2023/04/15 11:44:18;;;;;;;17.58;10.75;;;;;;;;;;4994771;28;20034;-65
2023/04/15 11:46:44;;;;;;;16.83;9.85;;;;;;;;;;4978442;28;20032;-65
2023/04/15 11:49:10;;;;;;;18.00;10.15;;;;;;;;;;4996204;28;20473;-64
2023/04/15 11:51:36;;;;;;;18.40;9.95;;;;;;;;;;5018509;28;20062;-64
2023/04/15 11:54:02;;;;;;;16.35;9.00;;;;;;;;;;5001287;28;20032;-68
2023/04/15 11:56:28;;;;;;;16.67;9.10;;;;;;;;;;5029011;28;20033;-65
2023/04/15 11:58:58;;;;;;;16.60;8.60;;;;;;;;;;5035351;28;20025;-66
2023/04/15 12:01:34;;;;;;;16.70;9.02;;;;;;;;;;5024309;28;20026;-65
2023/04/15 12:04:02;;;;;;;17.38;10.57;;;;;;;;;;5014633;28;20037;-65
2023/04/15 12:06:33;;;;;;;15.60;9.10;;;;;;;;;;5010706;28;20502;-66
2023/04/15 12:09:15;;;;;;;16.50;8.88;;;;;;;;;;5022464;28;20402;-68
2023/04/15 12:14:24;;;;;;;16.88;8.15;;;;;;;;;;4979697;28;20213;-68
2023/04/15 12:16:52;;;;;;;16.35;8.90;;;;;;;;;;4974771;28;20031;-67
2023/04/15 12:19:24;;;;;;;17.88;9.13;;;;;;;;;;4973788;28;20368;-69
2023/04/15 12:21:50;;;;;;;22.00;13.20;;;;;;;;;;4973330;28;20076;-68
2023/04/15 12:24:20;;;;;;;16.52;9.13;;;;;;;;;;4973905;28;20423;-69
2023/04/15 12:26:46;;;;;;;16.58;9.40;;;;;;;;;;4974773;28;20483;-70
2023/04/15 12:29:13;;;;;;;21.05;11.63;;;;;;;;;;4975154;28;20117;-69
2023/04/15 12:31:49;;;;;;;17.27;9.40;;;;;;;;;;4957398;28;20109;-68
2023/04/15 12:34:15;;;;;;;27.88;17.20;;;;;;;;;;4956508;28;20042;-69
2023/04/15 12:36:42;;;;;;;17.80;9.98;;;;;;;;;;4957597;28;20506;-69
2023/04/15 12:39:08;;;;;;;19.20;11.02;;;;;;;;;;4974228;28;20467;-68
2023/04/15 12:41:34;;;;;;;22.05;13.38;;;;;;;;;;4974532;28;20499;-68
2023/04/15 12:44:00;;;;;;;17.92;10.52;;;;;;;;;;4956381;28;20050;-68
2023/04/15 12:46:27;;;;;;;17.00;10.40;;;;;;;;;;4974157;28;20399;-69
2023/04/15 12:48:53;;;;;;;16.52;9.50;;;;;;;;;;4974212;28;20019;-68
2023/04/15 12:51:22;;;;;;;17.15;8.70;;;;;;;;;;4974374;28;20026;-69
2023/04/15 12:53:48;;;;;;;16.75;9.27;;;;;;;;;;4985446;28;20027;-68
2023/04/15 12:56:15;;;;;;;16.15;9.27;;;;;;;;;;4983058;28;20112;-68
2023/04/15 12:58:42;;;;;;;15.95;9.38;;;;;;;;;;4982205;28;20019;-68
2023/04/15 13:01:09;;;;;;;15.77;8.98;;;;;;;;;;4966217;28;20041;-69
2023/04/15 13:03:35;;;;;;;16.85;9.00;;;;;;;;;;4963596;28;20471;-67
2023/04/15 13:06:03;;;;;;;15.35;8.98;;;;;;;;;;4967239;28;20078;-67
2023/04/15 13:08:29;;;;;;;15.48;8.93;;;;;;;;;;4984338;28;20030;-67
2023/04/15 13:10:55;;;;;;;15.75;8.77;;;;;;;;;;4982450;28;20034;-67
2023/04/15 13:13:21;;;;;;;15.73;8.63;;;;;;;;;;4963795;28;20061;-68
2023/04/15 13:15:47;;;;;;;17.08;9.10;;;;;;;;;;4965409;28;20018;-67
2023/04/15 13:18:13;;;;;;;15.82;9.10;;;;;;;;;;4956255;28;20158;-68
2023/04/15 13:20:40;;;;;;;16.60;9.23;;;;;;;;;;4956277;28;20023;-67
2023/04/15 13:23:06;;;;;;;15.55;8.70;;;;;;;;;;4972844;28;20038;-68
2023/04/15 13:25:32;;;;;;;17.10;10.75;;;;;;;;;;4973283;28;20030;-68
2023/04/15 13:28:00;;;;;;;16.08;9.45;;;;;;;;;;4956142;28;20031;-67
2023/04/15 13:30:26;;;;;;;16.23;9.23;;;;;;;;;;4973201;28;20491;-67
2023/04/15 13:32:52;;;;;;;15.43;9.40;;;;;;;;;;4975814;28;20379;-67
2023/04/15 13:35:19;;;;;;;16.50;9.15;;;;;;;;;;4638740;28;10000146;-67
2023/04/15 13:37:45;;;;;;;15.55;8.88;;;;;;;;;;4964407;28;20027;-68
2023/04/15 13:40:11;;;;;;;15.32;8.63;;;;;;;;;;4979883;28;20023;-69
2023/04/15 13:42:37;;;;;;;16.27;9.25;;;;;;;;;;4977903;28;20027;-68
2023/04/15 13:45:03;;;;;;;15.88;8.90;;;;;;;;;;4980651;28;20111;-67
2023/04/15 13:47:29;;;;;;;15.82;8.65;;;;;;;;;;4978189;28;20022;-67
2023/04/15 13:49:55;;;;;;;15.80;9.48;;;;;;;;;;4979860;28;20479;-68
2023/04/15 13:52:25;;;;;;;15.80;9.68;;;;;;;;;;4982309;28;20056;-69
2023/04/15 13:54:51;;;;;;;15.95;9.82;;;;;;;;;;4988765;28;20034;-68
2023/04/15 13:57:17;;;;;;;17.38;10.55;;;;;;;;;;4989205;28;20042;-68
2023/04/15 13:59:43;;;;;;;16.52;9.63;;;;;;;;;;4989095;28;20029;-68
2023/04/15 14:02:09;;;;;;;17.23;10.77;;;;;;;;;;4989598;28;20030;-67
2023/04/15 14:04:35;;;;;;;17.25;10.35;;;;;;;;;;4989779;28;20033;-67
2023/04/15 14:07:01;;;;;;;16.50;10.38;;;;;;;;;;4990320;28;20030;-68
2023/04/15 14:09:27;;;;;;;18.98;11.20;;;;;;;;;;4983537;28;20056;-68
2023/04/15 14:11:53;;;;;;;18.48;11.65;;;;;;;;;;4969662;28;20073;-68
2023/04/15 14:14:19;;;;;;;17.27;11.70;;;;;;;;;;4969453;28;20479;-68
2023/04/15 14:16:46;;;;;;;17.88;12.55;;;;;;;;;;4970292;28;20118;-68
2023/04/15 14:19:12;;;;;;;17.60;12.73;;;;;;;;;;4970148;28;20034;-67
2023/04/15 14:21:38;;;;;;;17.08;12.23;;;;;;;;;;4953058;28;20452;-68